createdAt,value
2018-06-10T00:00:12.749Z,942.34
2018-06-10T00:01:12.629Z,942.31
2018-06-10T00:02:12.545Z,942.35
2018-06-10T00:03:12.453Z,942.30
2018-06-10T00:04:12.366Z,942.29
2018-06-10T00:05:12.316Z,942.34
2018-06-10T00:06:12.188Z,942.33
2018-06-10T00:07:12.101Z,942.32
2018-06-10T00:08:12.013Z,942.33
2018-06-10T00:09:11.924Z,942.33
2018-06-10T00:10:11.872Z,942.35
2018-06-10T00:11:11.749Z,942.31
2018-06-10T00:12:11.660Z,942.33
2018-06-10T00:13:11.574Z,942.33
2018-06-10T00:14:11.485Z,942.32
2018-06-10T00:15:11.429Z,942.31
2018-06-10T00:16:11.309Z,942.30
2018-06-10T00:17:11.218Z,942.27
2018-06-10T00:18:11.132Z,942.28
2018-06-10T00:19:11.040Z,942.28
2018-06-10T00:20:10.984Z,942.30
2018-06-10T00:21:10.866Z,942.27
2018-06-10T00:22:10.779Z,942.31
2018-06-10T00:23:10.691Z,942.30
2018-06-10T00:24:10.604Z,942.31
2018-06-10T00:25:10.518Z,942.28
2018-06-10T00:26:10.464Z,942.32
2018-06-10T00:27:10.338Z,942.34
2018-06-10T00:28:10.250Z,942.31
2018-06-10T00:29:10.159Z,942.31
2018-06-10T00:30:10.072Z,942.35
2018-06-10T00:31:10.025Z,942.33
2018-06-10T00:32:09.897Z,942.36
2018-06-10T00:33:09.810Z,942.34
2018-06-10T00:34:09.717Z,942.33
2018-06-10T00:35:09.633Z,942.34
2018-06-10T00:36:09.571Z,942.34
2018-06-10T00:37:09.455Z,942.35
2018-06-10T00:38:09.368Z,942.39
2018-06-10T00:39:09.286Z,942.39
2018-06-10T00:40:09.587Z,942.41
2018-06-10T00:41:09.140Z,942.40
2018-06-10T00:42:09.012Z,942.40
2018-06-10T00:43:08.926Z,942.41
2018-06-10T00:44:08.837Z,942.42
2018-06-10T00:45:08.748Z,942.43
2018-06-10T00:46:08.695Z,942.40
2018-06-10T00:47:08.677Z,942.38
2018-06-10T00:48:08.485Z,942.38
2018-06-10T00:49:08.395Z,942.34
2018-06-10T00:50:08.311Z,942.36
2018-06-10T00:51:08.257Z,942.37
2018-06-10T00:52:08.133Z,942.34
2018-06-10T00:53:08.045Z,942.31
2018-06-10T00:54:08.045Z,942.30
2018-06-10T00:55:07.867Z,942.28
2018-06-10T00:56:07.810Z,942.27
2018-06-10T00:57:07.690Z,942.24
2018-06-10T00:58:07.615Z,942.23
2018-06-10T00:59:07.516Z,942.19
2018-06-10T01:00:07.425Z,942.20
2018-06-10T01:01:07.462Z,942.19
2018-06-10T01:02:07.250Z,942.17
2018-06-10T01:03:07.160Z,942.19
2018-06-10T01:04:07.074Z,942.17
2018-06-10T01:05:06.984Z,942.15
2018-06-10T01:06:06.925Z,942.19
2018-06-10T01:07:06.898Z,942.21
2018-06-10T01:08:06.720Z,942.18
2018-06-10T01:09:06.699Z,942.18
2018-06-10T01:10:06.544Z,942.17
2018-06-10T01:11:06.483Z,942.15
2018-06-10T01:12:06.369Z,942.14
2018-06-10T01:13:06.277Z,942.16
2018-06-10T01:14:06.189Z,942.10
2018-06-10T01:15:06.103Z,942.14
2018-06-10T01:16:06.045Z,942.12
2018-06-10T01:17:05.925Z,942.10
2018-06-10T01:18:05.835Z,942.05
2018-06-10T01:19:05.749Z,942.11
2018-06-10T01:20:05.679Z,942.08
2018-06-10T01:21:05.607Z,942.06
2018-06-10T01:22:05.483Z,942.09
2018-06-10T01:23:05.394Z,942.08
2018-06-10T01:24:05.305Z,942.07
2018-06-10T01:25:05.217Z,942.06
2018-06-10T01:26:05.168Z,942.02
2018-06-10T01:27:05.041Z,942.01
2018-06-10T01:28:04.951Z,942.01
2018-06-10T01:29:04.864Z,941.99
2018-06-10T01:30:04.780Z,942.02
2018-06-10T01:31:04.717Z,942.02
2018-06-10T01:32:04.598Z,941.99
2018-06-10T01:33:04.512Z,942.01
2018-06-10T01:34:04.430Z,942.01
2018-06-10T01:35:04.333Z,942.02
2018-06-10T01:36:04.278Z,942.06
2018-06-10T01:37:04.161Z,942.07
2018-06-10T01:38:04.069Z,942.08
2018-06-10T01:39:03.980Z,942.08
2018-06-10T01:40:03.893Z,942.05
2018-06-10T01:41:03.837Z,942.09
2018-06-10T01:42:03.710Z,942.07
2018-06-10T01:43:03.625Z,942.07
2018-06-10T01:44:03.540Z,942.10
2018-06-10T01:45:03.452Z,942.13
2018-06-10T01:46:03.395Z,942.15
2018-06-10T01:47:03.270Z,942.11
2018-06-10T01:48:03.182Z,942.19
2018-06-10T01:49:03.093Z,942.19
2018-06-10T01:50:03.003Z,942.20
2018-06-10T01:51:02.954Z,942.20
2018-06-10T01:52:02.826Z,942.19
2018-06-10T01:53:02.741Z,942.20
2018-06-10T01:54:02.650Z,942.18
2018-06-10T01:55:02.566Z,942.16
2018-06-10T01:56:02.475Z,942.19
2018-06-10T01:57:02.417Z,942.16
2018-06-10T01:58:02.297Z,942.15
2018-06-10T01:59:02.208Z,942.14
2018-06-10T02:00:02.119Z,942.17
2018-06-10T02:01:02.033Z,942.14
2018-06-10T02:02:01.971Z,942.18
2018-06-10T02:03:01.851Z,942.17
2018-06-10T02:04:01.766Z,942.13
2018-06-10T02:05:01.677Z,942.15
2018-06-10T02:06:01.589Z,942.12
2018-06-10T02:07:01.530Z,942.12
2018-06-10T02:08:01.409Z,942.13
2018-06-10T02:09:01.325Z,942.11
2018-06-10T02:10:01.230Z,942.12
2018-06-10T02:11:01.144Z,942.17
2018-06-10T02:12:01.087Z,942.16
2018-06-10T02:13:00.968Z,942.11
2018-06-10T02:14:00.875Z,942.16
2018-06-10T02:15:00.787Z,942.11
2018-06-10T02:16:00.704Z,942.11
2018-06-10T02:17:00.645Z,942.06
2018-06-10T02:18:00.524Z,942.05
2018-06-10T02:19:00.433Z,942.04
2018-06-10T02:20:00.346Z,942.04
2018-06-10T02:21:00.258Z,942.02
2018-06-10T02:22:00.195Z,942.06
2018-06-10T02:23:00.081Z,942.06
2018-06-10T02:24:00.098Z,942.05
2018-06-10T02:24:59.900Z,942.08
2018-06-10T02:25:59.812Z,942.06
2018-06-10T02:26:59.754Z,942.09
2018-06-10T02:27:59.635Z,942.09
2018-06-10T02:28:59.549Z,942.10
2018-06-10T02:29:59.457Z,942.10
2018-06-10T02:30:59.369Z,942.08
2018-06-10T02:31:59.310Z,942.09
2018-06-10T02:32:59.194Z,942.10
2018-06-10T02:33:59.105Z,942.11
2018-06-10T02:34:59.021Z,942.11
2018-06-10T02:35:58.927Z,942.09
2018-06-10T02:36:58.874Z,942.10
2018-06-10T02:37:58.844Z,942.14
2018-06-10T02:38:58.658Z,942.11
2018-06-10T02:39:58.573Z,942.13
2018-06-10T02:40:58.484Z,942.14
2018-06-10T02:41:58.442Z,942.16
2018-06-10T02:42:58.305Z,942.20
2018-06-10T02:43:58.221Z,942.23
2018-06-10T02:44:58.235Z,942.25
2018-06-10T02:45:58.043Z,942.27
2018-06-10T02:46:57.986Z,942.23
2018-06-10T02:47:57.866Z,942.29
2018-06-10T02:48:57.785Z,942.27
2018-06-10T02:49:57.689Z,942.29
2018-06-10T02:50:57.603Z,942.26
2018-06-10T02:51:57.636Z,942.32
2018-06-10T02:52:57.422Z,942.32
2018-06-10T02:53:57.333Z,942.31
2018-06-10T02:54:57.245Z,942.33
2018-06-10T02:55:57.161Z,942.32
2018-06-10T02:56:57.104Z,942.35
2018-06-10T02:57:56.979Z,942.33
2018-06-10T02:58:56.978Z,942.35
2018-06-10T02:59:56.803Z,942.32
2018-06-10T03:00:56.717Z,942.29
2018-06-10T03:01:56.659Z,942.28
2018-06-10T03:02:56.538Z,942.26
2018-06-10T03:03:56.447Z,942.28
2018-06-10T03:04:56.362Z,942.25
2018-06-10T03:05:56.459Z,942.28
2018-06-10T03:06:56.217Z,942.27
2018-06-10T03:07:56.155Z,942.29
2018-06-10T03:08:56.010Z,942.30
2018-06-10T03:09:55.918Z,942.30
2018-06-10T03:10:55.831Z,942.26
2018-06-10T03:11:55.771Z,942.28
2018-06-10T03:12:55.744Z,942.30
2018-06-10T03:13:55.565Z,942.26
2018-06-10T03:14:55.477Z,942.29
2018-06-10T03:15:55.388Z,942.29
2018-06-10T03:16:55.331Z,942.25
2018-06-10T03:17:55.209Z,942.24
2018-06-10T03:18:55.123Z,942.24
2018-06-10T03:19:55.126Z,942.21
2018-06-10T03:20:54.947Z,942.21
2018-06-10T03:21:54.860Z,942.23
2018-06-10T03:22:54.800Z,942.24
2018-06-10T03:23:54.680Z,942.21
2018-06-10T03:24:54.592Z,942.22
2018-06-10T03:25:54.502Z,942.21
2018-06-10T03:26:54.490Z,942.20
2018-06-10T03:27:54.356Z,942.21
2018-06-10T03:28:54.237Z,942.24
2018-06-10T03:29:54.146Z,942.18
2018-06-10T03:30:54.061Z,942.21
2018-06-10T03:31:53.975Z,942.25
2018-06-10T03:32:53.920Z,942.22
2018-06-10T03:33:53.884Z,942.22
2018-06-10T03:34:53.710Z,942.20
2018-06-10T03:35:53.616Z,942.17
2018-06-10T03:36:53.535Z,942.16
2018-06-10T03:37:53.475Z,942.17
2018-06-10T03:38:53.352Z,942.14
2018-06-10T03:39:53.265Z,942.14
2018-06-10T03:40:53.268Z,942.15
2018-06-10T03:41:53.086Z,942.15
2018-06-10T03:42:53.029Z,942.13
2018-06-10T03:43:52.909Z,942.15
2018-06-10T03:44:52.819Z,942.12
2018-06-10T03:45:52.738Z,942.13
2018-06-10T03:46:52.645Z,942.13
2018-06-10T03:47:52.591Z,942.15
2018-06-10T03:48:52.465Z,942.15
2018-06-10T03:49:52.380Z,942.12
2018-06-10T03:50:52.293Z,942.12
2018-06-10T03:51:52.200Z,942.11
2018-06-10T03:52:52.144Z,942.17
2018-06-10T03:53:52.024Z,942.17
2018-06-10T03:54:51.940Z,942.16
2018-06-10T03:55:51.848Z,942.16
2018-06-10T03:56:51.761Z,942.15
2018-06-10T03:57:51.701Z,942.14
2018-06-10T03:58:51.588Z,942.10
2018-06-10T03:59:51.495Z,942.11
2018-06-10T04:00:51.407Z,942.11
2018-06-10T04:01:51.321Z,942.10
2018-06-10T04:02:51.259Z,942.09
2018-06-10T04:03:51.142Z,942.10
2018-06-10T04:04:51.054Z,942.04
2018-06-10T04:05:50.966Z,942.07
2018-06-10T04:06:50.878Z,942.10
2018-06-10T04:07:50.823Z,942.06
2018-06-10T04:08:50.699Z,942.06
2018-06-10T04:09:50.615Z,942.11
2018-06-10T04:10:50.526Z,942.11
2018-06-10T04:11:50.436Z,942.08
2018-06-10T04:12:50.382Z,942.08
2018-06-10T04:13:50.261Z,942.10
2018-06-10T04:14:50.171Z,942.11
2018-06-10T04:15:50.088Z,942.12
2018-06-10T04:16:49.998Z,942.10
2018-06-10T04:17:49.938Z,942.06
2018-06-10T04:18:49.820Z,942.03
2018-06-10T04:19:49.732Z,941.99
2018-06-10T04:20:49.647Z,942.01
2018-06-10T04:21:49.555Z,942.01
2018-06-10T04:22:49.499Z,942.01
2018-06-10T04:23:49.383Z,942.02
2018-06-10T04:24:49.289Z,942.00
2018-06-10T04:25:49.205Z,941.99
2018-06-10T04:26:49.116Z,942.01
2018-06-10T04:27:49.062Z,942.02
2018-06-10T04:28:48.942Z,942.00
2018-06-10T04:29:48.855Z,942.03
2018-06-10T04:30:48.762Z,942.03
2018-06-10T04:31:48.691Z,942.02
2018-06-10T04:32:48.622Z,942.02
2018-06-10T04:33:48.502Z,942.06
2018-06-10T04:34:48.418Z,942.05
2018-06-10T04:35:48.325Z,942.05
2018-06-10T04:36:48.237Z,942.01
2018-06-10T04:37:48.183Z,942.05
2018-06-10T04:38:48.062Z,942.02
2018-06-10T04:39:47.974Z,942.06
2018-06-10T04:40:47.888Z,942.05
2018-06-10T04:41:47.798Z,942.03
2018-06-10T04:42:48.651Z,942.01
2018-06-10T04:43:47.623Z,942.08
2018-06-10T04:44:47.536Z,942.03
2018-06-10T04:45:47.447Z,942.04
2018-06-10T04:46:47.361Z,942.04
2018-06-10T04:47:47.302Z,942.08
2018-06-10T04:48:47.185Z,942.06
2018-06-10T04:49:47.098Z,942.07
2018-06-10T04:50:47.009Z,942.09
2018-06-10T04:51:46.924Z,942.09
2018-06-10T04:52:46.836Z,942.11
2018-06-10T04:53:46.778Z,942.11
2018-06-10T04:54:46.658Z,942.11
2018-06-10T04:55:46.571Z,942.11
2018-06-10T04:56:46.484Z,942.14
2018-06-10T04:57:46.397Z,942.10
2018-06-10T04:58:46.337Z,942.07
2018-06-10T04:59:46.217Z,942.13
2018-06-10T05:00:46.132Z,942.08
2018-06-10T05:01:46.043Z,942.09
2018-06-10T05:02:45.955Z,942.08
2018-06-10T05:03:45.974Z,942.05
2018-06-10T05:04:45.779Z,942.10
2018-06-10T05:05:45.693Z,942.09
2018-06-10T05:06:45.604Z,942.10
2018-06-10T05:07:45.521Z,942.13
2018-06-10T05:08:45.463Z,942.12
2018-06-10T05:09:45.339Z,942.15
2018-06-10T05:10:45.251Z,942.11
2018-06-10T05:11:45.168Z,942.17
2018-06-10T05:12:45.080Z,942.14
2018-06-10T05:13:45.023Z,942.13
2018-06-10T05:14:44.902Z,942.11
2018-06-10T05:15:44.818Z,942.13
2018-06-10T05:16:44.728Z,942.15
2018-06-10T05:17:44.732Z,942.12
2018-06-10T05:18:44.584Z,942.12
2018-06-10T05:19:44.495Z,942.21
2018-06-10T05:20:44.378Z,942.19
2018-06-10T05:21:44.295Z,942.17
2018-06-10T05:22:44.203Z,942.22
2018-06-10T05:23:44.147Z,942.22
2018-06-10T05:24:44.119Z,942.22
2018-06-10T05:25:43.940Z,942.21
2018-06-10T05:26:43.853Z,942.22
2018-06-10T05:27:43.767Z,942.16
2018-06-10T05:28:43.712Z,942.22
2018-06-10T05:29:43.593Z,942.22
2018-06-10T05:30:43.504Z,942.24
2018-06-10T05:31:43.511Z,942.23
2018-06-10T05:32:43.330Z,942.28
2018-06-10T05:33:43.273Z,942.28
2018-06-10T05:34:43.157Z,942.25
2018-06-10T05:35:43.073Z,942.29
2018-06-10T05:36:42.982Z,942.29
2018-06-10T05:37:42.893Z,942.30
2018-06-10T05:38:42.932Z,942.32
2018-06-10T05:39:42.723Z,942.33
2018-06-10T05:40:42.633Z,942.35
2018-06-10T05:41:42.547Z,942.31
2018-06-10T05:42:42.458Z,942.37
2018-06-10T05:43:42.400Z,942.36
2018-06-10T05:44:42.286Z,942.38
2018-06-10T05:45:42.292Z,942.39
2018-06-10T05:46:42.109Z,942.40
2018-06-10T05:47:42.023Z,942.40
2018-06-10T05:48:41.970Z,942.40
2018-06-10T05:49:41.847Z,942.45
2018-06-10T05:50:41.767Z,942.47
2018-06-10T05:51:41.674Z,942.52
2018-06-10T05:52:41.679Z,942.55
2018-06-10T05:53:41.529Z,942.58
2018-06-10T05:54:41.424Z,942.60
2018-06-10T05:55:41.332Z,942.61
2018-06-10T05:56:41.239Z,942.62
2018-06-10T05:57:41.153Z,942.63
2018-06-10T05:58:41.093Z,942.66
2018-06-10T05:59:41.067Z,942.71
2018-06-10T06:00:40.893Z,942.77
2018-06-10T06:01:40.803Z,942.86
2018-06-10T06:02:40.715Z,942.94
2018-06-10T06:03:40.668Z,943.00
2018-06-10T06:04:40.540Z,943.07
2018-06-10T06:05:40.453Z,943.12
2018-06-10T06:06:40.465Z,943.18
2018-06-10T06:07:40.283Z,943.21
2018-06-10T06:08:40.223Z,943.31
2018-06-10T06:09:40.111Z,943.41
2018-06-10T06:10:40.024Z,943.46
2018-06-10T06:11:39.933Z,943.36
2018-06-10T06:12:39.849Z,943.23
2018-06-10T06:13:39.796Z,943.13
2018-06-10T06:14:39.766Z,943.06
2018-06-10T06:15:39.591Z,942.96
2018-06-10T06:16:39.506Z,942.93
2018-06-10T06:17:39.416Z,942.96
2018-06-10T06:18:39.363Z,942.97
2018-06-10T06:19:39.261Z,942.90
2018-06-10T06:20:39.160Z,942.97
2018-06-10T06:21:39.164Z,942.95
2018-06-10T06:22:38.988Z,943.00
2018-06-10T06:23:38.908Z,943.03
2018-06-10T06:24:38.848Z,943.02
2018-06-10T06:25:38.731Z,943.01
2018-06-10T06:26:38.645Z,942.98
2018-06-10T06:27:38.559Z,942.99
2018-06-10T06:28:38.569Z,942.95
2018-06-10T06:29:38.419Z,942.99
2018-06-10T06:30:38.305Z,943.03
2018-06-10T06:31:38.217Z,943.10
2018-06-10T06:32:38.128Z,943.12
2018-06-10T06:33:38.044Z,943.14
2018-06-10T06:34:38.082Z,943.22
2018-06-10T06:35:37.876Z,943.28
2018-06-10T06:36:37.788Z,943.30
2018-06-10T06:37:37.700Z,943.29
2018-06-10T06:38:37.636Z,943.25
2018-06-10T06:39:37.563Z,943.16
2018-06-10T06:40:37.463Z,943.23
2018-06-10T06:41:37.357Z,943.39
2018-06-10T06:42:37.271Z,943.63
2018-06-10T06:43:37.188Z,943.81
2018-06-10T06:44:37.134Z,943.54
2018-06-10T06:45:37.022Z,944.34
2018-06-10T06:46:36.929Z,943.35
2018-06-10T06:47:36.847Z,943.43
2018-06-10T06:48:36.762Z,943.41
2018-06-10T06:49:36.706Z,943.47
2018-06-10T06:50:36.592Z,943.43
2018-06-10T06:51:36.504Z,943.41
2018-06-10T06:52:36.462Z,943.56
2018-06-10T06:53:36.335Z,944.28
2018-06-10T06:54:36.281Z,944.45
2018-06-10T06:55:36.164Z,945.17
2018-06-10T06:56:36.088Z,944.89
2018-06-10T06:57:35.998Z,946.66
2018-06-10T06:58:35.912Z,946.30
2018-06-10T06:59:35.856Z,945.51
2018-06-10T07:00:35.748Z,945.18
2018-06-10T07:01:35.658Z,944.51
2018-06-10T07:02:35.571Z,944.14
2018-06-10T07:03:35.492Z,943.95
2018-06-10T07:04:35.437Z,943.94
2018-06-10T07:05:35.320Z,944.26
2018-06-10T07:06:35.238Z,945.20
2018-06-10T07:07:35.155Z,946.14
2018-06-10T07:08:35.072Z,945.35
2018-06-10T07:09:35.019Z,945.01
2018-06-10T07:10:34.904Z,945.43
2018-06-10T07:11:34.821Z,944.76
2018-06-10T07:12:34.740Z,944.14
2018-06-10T07:13:34.655Z,943.85
2018-06-10T07:14:34.624Z,943.80
2018-06-10T07:15:34.490Z,943.67
2018-06-10T07:16:34.408Z,943.65
2018-06-10T07:17:34.328Z,943.55
2018-06-10T07:18:34.241Z,943.48
2018-06-10T07:19:34.194Z,943.40
2018-06-10T07:20:34.076Z,943.36
2018-06-10T07:21:33.994Z,943.32
2018-06-10T07:22:33.918Z,943.34
2018-06-10T07:23:33.860Z,943.28
2018-06-10T07:24:33.780Z,943.31
2018-06-10T07:25:33.661Z,943.27
2018-06-10T07:26:33.585Z,943.28
2018-06-10T07:27:33.500Z,943.20
2018-06-10T07:28:33.421Z,943.19
2018-06-10T07:29:33.367Z,943.19
2018-06-10T07:30:33.255Z,943.16
2018-06-10T07:31:33.171Z,943.17
2018-06-10T07:32:33.090Z,943.16
2018-06-10T07:33:33.081Z,943.15
2018-06-10T07:34:32.957Z,943.11
2018-06-10T07:35:32.840Z,943.10
2018-06-10T07:36:32.759Z,943.08
2018-06-10T07:37:32.675Z,943.08
2018-06-10T07:38:32.595Z,943.05
2018-06-10T07:39:32.548Z,943.07
2018-06-10T07:40:32.485Z,943.02
2018-06-10T07:41:32.345Z,943.00
2018-06-10T07:42:32.261Z,943.00
2018-06-10T07:43:32.181Z,942.97
2018-06-10T07:44:32.126Z,942.96
2018-06-10T07:45:32.016Z,942.95
2018-06-10T07:46:31.933Z,942.96
2018-06-10T07:47:31.852Z,942.99
2018-06-10T07:48:31.769Z,942.99
2018-06-10T07:49:31.717Z,943.01
2018-06-10T07:50:31.602Z,943.04
2018-06-10T07:51:31.618Z,943.04
2018-06-10T07:52:31.436Z,943.06
2018-06-10T07:53:31.355Z,943.07
2018-06-10T07:54:31.272Z,943.05
2018-06-10T07:55:31.219Z,943.08
2018-06-10T07:56:31.104Z,943.05
2018-06-10T07:57:31.026Z,943.06
2018-06-10T07:58:30.939Z,943.03
2018-06-10T07:59:30.861Z,943.05
2018-06-10T08:00:30.807Z,943.06
2018-06-10T08:01:30.690Z,943.05
2018-06-10T08:02:30.606Z,943.09
2018-06-10T08:03:30.525Z,943.09
2018-06-10T08:04:30.443Z,943.10
2018-06-10T08:05:30.509Z,943.17
2018-06-10T08:06:30.277Z,943.19
2018-06-10T08:07:30.191Z,943.25
2018-06-10T08:08:30.121Z,943.31
2018-06-10T08:09:30.032Z,943.33
2018-06-10T08:10:29.972Z,943.43
2018-06-10T08:11:29.861Z,943.53
2018-06-10T08:12:29.869Z,943.60
2018-06-10T08:13:29.698Z,943.52
2018-06-10T08:14:29.614Z,943.50
2018-06-10T08:15:29.560Z,943.51
2018-06-10T08:16:29.447Z,943.52
2018-06-10T08:17:29.362Z,943.49
2018-06-10T08:18:29.281Z,943.43
2018-06-10T08:19:29.291Z,943.34
2018-06-10T08:20:29.148Z,943.29
2018-06-10T08:21:29.036Z,943.25
2018-06-10T08:22:28.953Z,943.24
2018-06-10T08:23:28.870Z,943.20
2018-06-10T08:24:28.787Z,943.17
2018-06-10T08:25:28.738Z,943.23
2018-06-10T08:26:28.734Z,943.25
2018-06-10T08:27:28.542Z,943.32
2018-06-10T08:28:28.457Z,943.36
2018-06-10T08:29:28.376Z,943.50
2018-06-10T08:30:28.332Z,943.63
2018-06-10T08:31:28.211Z,943.61
2018-06-10T08:32:28.129Z,943.57
2018-06-10T08:33:28.145Z,943.60
2018-06-10T08:34:27.968Z,943.55
2018-06-10T08:35:27.916Z,943.45
2018-06-10T08:36:27.804Z,943.43
2018-06-10T08:37:27.773Z,943.38
2018-06-10T08:38:27.639Z,943.31
2018-06-10T08:39:27.556Z,943.28
2018-06-10T08:40:27.606Z,943.36
2018-06-10T08:41:27.404Z,943.34
2018-06-10T08:42:27.312Z,943.35
2018-06-10T08:43:27.235Z,943.34
2018-06-10T08:44:27.153Z,943.32
2018-06-10T08:45:27.102Z,943.29
2018-06-10T08:46:26.988Z,943.31
2018-06-10T08:47:26.999Z,943.37
2018-06-10T08:48:26.825Z,943.37
2018-06-10T08:49:26.744Z,943.36
2018-06-10T08:50:26.700Z,943.35
2018-06-10T08:51:26.583Z,943.34
2018-06-10T08:52:26.502Z,943.37
2018-06-10T08:53:26.417Z,943.35
2018-06-10T08:54:26.446Z,943.39
2018-06-10T08:55:26.291Z,943.34
2018-06-10T08:56:26.176Z,943.27
2018-06-10T08:57:26.098Z,943.26
2018-06-10T08:58:26.014Z,943.29
2018-06-10T08:59:25.931Z,943.27
2018-06-10T09:00:25.879Z,943.28
2018-06-10T09:01:25.862Z,943.28
2018-06-10T09:02:25.690Z,943.28
2018-06-10T09:03:25.608Z,943.21
2018-06-10T09:04:25.531Z,943.20
2018-06-10T09:05:25.476Z,943.19
2018-06-10T09:06:25.367Z,943.15
2018-06-10T09:07:25.286Z,943.13
2018-06-10T09:08:25.297Z,943.14
2018-06-10T09:09:25.123Z,943.13
2018-06-10T09:10:25.076Z,943.19
2018-06-10T09:11:24.963Z,943.14
2018-06-10T09:12:24.889Z,943.17
2018-06-10T09:13:24.803Z,943.15
2018-06-10T09:14:24.723Z,943.18
2018-06-10T09:15:24.765Z,943.11
2018-06-10T09:16:24.562Z,943.12
2018-06-10T09:17:24.479Z,943.11
2018-06-10T09:18:24.409Z,943.09
2018-06-10T09:19:24.321Z,943.03
2018-06-10T09:20:24.273Z,943.05
2018-06-10T09:21:24.279Z,942.99
2018-06-10T09:22:24.138Z,943.08
2018-06-10T09:23:23.996Z,943.05
2018-06-10T09:24:23.916Z,943.15
2018-06-10T09:25:23.836Z,943.26
2018-06-10T09:26:23.790Z,943.34
2018-06-10T09:27:23.675Z,943.42
2018-06-10T09:28:23.595Z,943.49
2018-06-10T09:29:23.513Z,943.55
2018-06-10T09:30:23.436Z,943.61
2018-06-10T09:31:23.383Z,943.58
2018-06-10T09:32:23.272Z,943.60
2018-06-10T09:33:23.188Z,943.52
2018-06-10T09:34:23.106Z,943.45
2018-06-10T09:35:23.051Z,943.48
2018-06-10T09:36:22.980Z,943.48
2018-06-10T09:37:22.866Z,943.45
2018-06-10T09:38:22.785Z,943.43
2018-06-10T09:39:22.712Z,943.45
2018-06-10T09:40:22.627Z,943.42
2018-06-10T09:41:22.579Z,943.48
2018-06-10T09:42:22.467Z,943.47
2018-06-10T09:43:22.390Z,943.47
2018-06-10T09:44:22.311Z,943.42
2018-06-10T09:45:22.228Z,943.44
2018-06-10T09:46:22.177Z,943.48
2018-06-10T09:47:22.068Z,943.44
2018-06-10T09:48:21.989Z,943.42
2018-06-10T09:49:21.910Z,943.34
2018-06-10T09:50:21.830Z,943.26
2018-06-10T09:51:21.781Z,943.28
2018-06-10T09:52:21.676Z,943.35
2018-06-10T09:53:21.592Z,943.32
2018-06-10T09:54:21.509Z,943.59
2018-06-10T09:55:21.519Z,943.49
2018-06-10T09:56:21.392Z,943.57
2018-06-10T09:57:21.277Z,943.50
2018-06-10T09:58:21.192Z,943.53
2018-06-10T09:59:21.113Z,943.45
2018-06-10T10:00:21.039Z,943.28
2018-06-10T10:01:20.991Z,943.20
2018-06-10T10:02:20.878Z,943.45
2018-06-10T10:03:20.800Z,943.25
2018-06-10T10:04:20.721Z,942.93
2018-06-10T10:05:20.648Z,942.89
2018-06-10T10:06:20.591Z,942.86
2018-06-10T10:07:20.482Z,942.83
2018-06-10T10:08:20.407Z,942.78
2018-06-10T10:09:20.325Z,942.67
2018-06-10T10:10:20.247Z,942.60
2018-06-10T10:11:20.197Z,942.56
2018-06-10T10:12:20.092Z,942.59
2018-06-10T10:13:20.010Z,942.59
2018-06-10T10:14:19.931Z,942.65
2018-06-10T10:15:19.857Z,942.69
2018-06-10T10:16:19.803Z,943.10
2018-06-10T10:17:19.689Z,943.15
2018-06-10T10:18:19.610Z,943.17
2018-06-10T10:19:19.530Z,943.15
2018-06-10T10:20:19.456Z,943.28
2018-06-10T10:21:19.404Z,943.29
2018-06-10T10:22:19.294Z,943.33
2018-06-10T10:23:19.216Z,943.38
2018-06-10T10:24:19.229Z,943.37
2018-06-10T10:25:19.056Z,943.10
2018-06-10T10:26:19.010Z,943.31
2018-06-10T10:27:18.900Z,943.29
2018-06-10T10:28:18.863Z,943.03
2018-06-10T10:29:18.742Z,942.92
2018-06-10T10:30:18.664Z,942.86
2018-06-10T10:31:18.620Z,942.86
2018-06-10T10:32:18.506Z,942.82
2018-06-10T10:33:18.427Z,942.85
2018-06-10T10:34:18.350Z,943.09
2018-06-10T10:35:18.275Z,943.13
2018-06-10T10:36:18.226Z,942.90
2018-06-10T10:37:18.119Z,942.91
2018-06-10T10:38:18.134Z,943.04
2018-06-10T10:39:17.963Z,942.99
2018-06-10T10:40:17.883Z,943.03
2018-06-10T10:41:17.838Z,943.01
2018-06-10T10:42:17.729Z,943.03
2018-06-10T10:43:17.648Z,943.00
2018-06-10T10:44:17.571Z,943.05
2018-06-10T10:45:17.585Z,942.82
2018-06-10T10:46:17.449Z,942.80
2018-06-10T10:47:17.342Z,942.76
2018-06-10T10:48:17.265Z,942.76
2018-06-10T10:49:17.186Z,942.78
2018-06-10T10:50:17.110Z,942.78
2018-06-10T10:51:17.065Z,942.74
2018-06-10T10:52:17.066Z,942.97
2018-06-10T10:53:16.875Z,942.72
2018-06-10T10:54:16.802Z,942.67
2018-06-10T10:55:16.726Z,942.59
2018-06-10T10:56:16.652Z,942.60
2018-06-10T10:57:16.597Z,942.51
2018-06-10T10:58:16.491Z,942.49
2018-06-10T10:59:16.518Z,942.54
2018-06-10T11:00:16.335Z,942.85
2018-06-10T11:01:16.261Z,942.89
2018-06-10T11:02:16.209Z,942.86
2018-06-10T11:03:16.103Z,942.95
2018-06-10T11:04:16.036Z,942.97
2018-06-10T11:05:15.943Z,942.96
2018-06-10T11:06:15.961Z,942.92
2018-06-10T11:07:15.818Z,942.90
2018-06-10T11:08:15.771Z,942.93
2018-06-10T11:09:15.633Z,942.91
2018-06-10T11:10:15.555Z,942.94
2018-06-10T11:11:15.480Z,942.49
2018-06-10T11:12:15.430Z,942.56
2018-06-10T11:13:15.411Z,942.61
2018-06-10T11:14:15.242Z,942.60
2018-06-10T11:15:15.173Z,942.59
2018-06-10T11:16:15.094Z,942.53
2018-06-10T11:17:15.054Z,942.63
2018-06-10T11:18:14.937Z,942.54
2018-06-10T11:19:14.858Z,942.44
2018-06-10T11:20:14.878Z,942.45
2018-06-10T11:21:14.703Z,942.42
2018-06-10T11:22:14.661Z,942.44
2018-06-10T11:23:14.552Z,942.50
2018-06-10T11:24:14.469Z,942.56
2018-06-10T11:25:14.395Z,942.65
2018-06-10T11:26:14.314Z,942.53
2018-06-10T11:27:14.364Z,942.81
2018-06-10T11:28:14.161Z,942.75
2018-06-10T11:29:14.102Z,942.52
2018-06-10T11:30:14.001Z,942.74
2018-06-10T11:31:13.926Z,942.85
2018-06-10T11:32:13.879Z,942.90
2018-06-10T11:33:13.768Z,942.89
2018-06-10T11:34:13.783Z,942.89
2018-06-10T11:35:13.611Z,942.81
2018-06-10T11:36:13.537Z,942.77
2018-06-10T11:37:13.489Z,942.73
2018-06-10T11:38:13.380Z,942.70
2018-06-10T11:39:13.305Z,942.73
2018-06-10T11:40:13.222Z,942.69
2018-06-10T11:41:13.238Z,942.60
2018-06-10T11:42:13.127Z,942.65
2018-06-10T11:43:12.992Z,942.63
2018-06-10T11:44:12.915Z,942.61
2018-06-10T11:45:12.838Z,942.39
2018-06-10T11:46:12.758Z,942.22
2018-06-10T11:47:12.716Z,942.21
2018-06-10T11:48:12.604Z,942.20
2018-06-10T11:49:12.527Z,942.25
2018-06-10T11:50:12.458Z,942.26
2018-06-10T11:51:12.375Z,942.45
2018-06-10T11:52:12.373Z,942.25
2018-06-10T11:53:12.220Z,942.28
2018-06-10T11:54:12.145Z,942.39
2018-06-10T11:55:12.066Z,942.56
2018-06-10T11:56:11.988Z,942.67
2018-06-10T11:57:11.945Z,942.36
2018-06-10T11:58:11.841Z,942.47
2018-06-10T11:59:11.759Z,942.37
2018-06-10T12:00:11.682Z,942.33
2018-06-10T12:01:11.606Z,942.28
2018-06-10T12:02:11.556Z,942.18
2018-06-10T12:03:11.449Z,942.12
2018-06-10T12:04:11.371Z,942.07
2018-06-10T12:05:11.317Z,942.09
2018-06-10T12:06:11.217Z,942.12
2018-06-10T12:07:11.171Z,942.06
2018-06-10T12:08:11.062Z,942.00
2018-06-10T12:09:10.982Z,942.30
2018-06-10T12:10:10.906Z,942.38
2018-06-10T12:11:10.828Z,942.05
2018-06-10T12:12:10.786Z,942.05
2018-06-10T12:13:10.669Z,942.07
2018-06-10T12:14:10.590Z,942.09
2018-06-10T12:15:10.518Z,942.44
2018-06-10T12:16:10.642Z,942.44
2018-06-10T12:17:10.392Z,942.48
2018-06-10T12:18:10.282Z,942.49
2018-06-10T12:19:10.202Z,942.45
2018-06-10T12:20:10.130Z,942.41
2018-06-10T12:21:10.049Z,942.33
2018-06-10T12:22:10.095Z,942.19
2018-06-10T12:23:09.892Z,942.20
2018-06-10T12:24:09.817Z,942.00
2018-06-10T12:25:09.738Z,942.05
2018-06-10T12:26:09.666Z,942.00
2018-06-10T12:27:09.588Z,941.96